Time;durP1;ratioP1;P1;durP2;ratioP2;P2;SDS_P1;SDS_P2;PMS_P1;PMS_P2;Temp;Humidity;BMP_temperature;BMP_pressure;BME280_temperature;BME280_humidity;BME280_pressure;Samples;Min_cycle;Max_cycle;Signal;HPM_P1;HPM_P2
2022/05/28 00:00:20;;;;;;;5.47;2.17;;;;;;;9.19;64.78;99630.11;1688205;85;25673;-74
2022/05/28 00:02:48;;;;;;;4.60;2.02;;;;;;;9.16;64.71;99630.76;1688026;85;25657;-73
2022/05/28 00:05:15;;;;;;;6.00;1.90;;;;;;;9.13;64.81;99632.17;1688181;85;28008;-73
2022/05/28 00:07:41;;;;;;;4.58;1.90;;;;;;;9.11;64.87;99627.65;1688184;84;25412;-73
2022/05/28 00:10:14;;;;;;;8.63;2.17;;;;;;;9.09;65.21;99629.05;1688271;85;25570;-73
2022/05/28 00:12:41;;;;;;;5.70;1.77;;;;;;;9.07;65.15;99625.89;1688503;84;25669;-74
2022/05/28 00:15:09;;;;;;;5.37;1.80;;;;;;;9.03;65.17;99625.72;1688546;85;25474;-74
2022/05/28 00:17:36;;;;;;;8.30;2.45;;;;;;;9.01;65.17;99625.25;1688497;85;28040;-74
2022/05/28 00:20:06;;;;;;;6.97;1.80;;;;;;;8.97;65.27;99631.83;1688474;85;25554;-74
2022/05/28 00:22:40;;;;;;;7.37;1.85;;;;;;;8.94;65.31;99641.11;1688537;84;25621;-74
2022/05/28 00:25:10;;;;;;;6.42;1.85;;;;;;;8.91;65.40;99639.03;1688110;85;25431;-74
2022/05/28 00:27:37;;;;;;;3.27;1.60;;;;;;;8.88;65.63;99642.34;1688739;85;25472;-74
2022/05/28 00:30:06;;;;;;;7.80;1.62;;;;;;;8.86;65.65;99642.66;1688540;85;27975;-75
2022/05/28 00:32:33;;;;;;;2.65;1.40;;;;;;;8.84;65.87;99643.53;1688558;85;25784;-74
2022/05/28 00:34:59;;;;;;;2.90;1.30;;;;;;;8.81;65.87;99639.32;1688513;85;25656;-74
2022/05/28 00:37:26;;;;;;;4.95;1.80;;;;;;;8.79;65.75;99646.38;1688625;85;25752;-75
2022/05/28 00:39:52;;;;;;;3.12;1.80;;;;;;;8.76;66.06;99637.55;1688706;84;25441;-74
2022/05/28 00:42:19;;;;;;;6.83;1.67;;;;;;;8.75;66.21;99640.81;1688639;85;28021;-74
2022/05/28 00:44:45;;;;;;;4.12;1.65;;;;;;;8.72;66.52;99641.99;1688538;85;25486;-75
2022/05/28 00:47:12;;;;;;;4.55;1.87;;;;;;;8.71;66.15;99645.78;1688673;85;25463;-75
2022/05/28 00:49:39;;;;;;;3.33;1.72;;;;;;;8.68;66.35;99643.14;1688625;85;25685;-75
2022/05/28 00:52:10;;;;;;;4.75;1.75;;;;;;;8.68;66.41;99641.01;1688648;85;25479;-74
2022/05/28 00:54:43;;;;;;;8.93;2.00;;;;;;;8.65;66.35;99643.79;1688687;85;27373;-74
2022/05/28 00:57:12;;;;;;;2.95;1.60;;;;;;;8.60;66.38;99639.33;1687728;84;25470;-75
2022/05/28 00:59:38;;;;;;;2.97;1.57;;;;;;;8.58;66.37;99646.12;1690436;84;25704;-74
2022/05/28 01:02:19;;;;;;;3.15;1.60;;;;;;;8.55;66.72;99643.50;1686579;84;26313;-74
2022/05/28 01:05:12;;;;;;;2.95;1.20;;;;;;;8.54;66.74;99639.77;1686657;84;25502;-74
2022/05/28 01:07:56;;;;;;;3.37;1.40;;;;;;;8.51;66.94;99632.30;1606986;89;28116;-73
2022/05/28 01:11:09;;;;;;;4.50;1.47;;;;;;;8.48;67.12;99631.56;1606346;89;25680;-75
2022/05/28 01:13:40;;;;;;;2.12;1.22;;;;;;;8.49;67.21;99629.13;1606968;89;25620;-74
2022/05/28 01:16:30;;;;;;;8.55;1.65;;;;;;;8.47;67.11;99630.78;1606916;88;25703;-74
2022/05/28 01:19:05;;;;;;;4.40;1.82;;;;;;;8.41;67.25;99623.37;1606195;88;25716;-73
2022/05/28 01:21:58;;;;;;;4.05;1.47;;;;;;;8.39;67.33;99622.07;1606772;89;27493;-73
2022/05/28 01:24:58;;;;;;;4.53;1.42;;;;;;;8.38;67.49;99617.80;1606879;89;25613;-73
2022/05/28 01:27:42;;;;;;;3.27;1.85;;;;;;;8.35;67.55;99618.42;1606766;88;25750;-74
2022/05/28 01:30:14;;;;;;;6.08;1.20;;;;;;;8.30;67.66;99619.34;1606918;89;25741;-73
2022/05/28 01:32:43;;;;;;;6.55;1.47;;;;;;;8.26;68.01;99617.03;1606989;89;25634;-74
2022/05/28 01:35:15;;;;;;;3.52;1.65;;;;;;;8.21;67.91;99617.95;1607017;89;27360;-74
2022/05/28 01:37:45;;;;;;;7.05;1.57;;;;;;;8.17;68.21;99618.88;1606856;89;25730;-74
2022/05/28 01:40:14;;;;;;;6.62;1.52;;;;;;;8.14;68.22;99618.95;1606980;89;25566;-74
2022/05/28 01:42:45;;;;;;;3.30;1.40;;;;;;;8.11;68.59;99616.88;1616690;85;25721;-74
2022/05/28 01:45:14;;;;;;;3.70;1.50;;;;;;;8.10;68.52;99620.66;1686690;84;25591;-73
2022/05/28 01:47:43;;;;;;;2.30;1.15;;;;;;;8.07;68.65;99617.79;1686767;84;27584;-73
2022/05/28 01:50:13;;;;;;;4.35;1.30;;;;;;;8.05;68.76;99618.09;1686555;84;25660;-73
2022/05/28 01:52:42;;;;;;;5.00;2.08;;;;;;;8.04;68.75;99619.22;1686680;85;25588;-74
2022/05/28 01:55:10;;;;;;;4.40;2.30;;;;;;;8.04;68.86;99611.92;1686613;84;25630;-74
2022/05/28 01:57:37;;;;;;;3.87;1.57;;;;;;;8.04;68.65;99609.23;1685912;84;25480;-75
2022/05/28 02:00:06;;;;;;;3.52;1.60;;;;;;;8.04;68.65;99609.23;1684681;84;27908;-75
2022/05/28 02:02:32;;;;;;;2.00;1.25;;;;;;;8.03;69.05;99606.84;1684682;84;25603;-75
2022/05/28 02:04:59;;;;;;;3.40;1.15;;;;;;;8.00;69.17;99608.27;1684658;84;25549;-73
2022/05/28 02:07:25;;;;;;;6.08;1.37;;;;;;;7.98;69.16;99605.63;1684658;84;26319;-73
2022/05/28 02:10:03;;;;;;;5.72;1.57;;;;;;;7.97;69.34;99607.53;1684674;84;32489;-73
2022/05/28 02:12:34;;;;;;;2.60;1.27;;;;;;;7.96;69.50;99609.18;1684690;84;27330;-73
2022/05/28 02:15:32;;;;;;;5.55;1.72;;;;;;;7.94;69.46;99610.05;1684604;84;25474;-73
2022/05/28 02:18:20;;;;;;;3.27;1.45;;;;;;;7.90;69.57;99600.45;1556189;92;25714;-73
2022/05/28 02:21:16;;;;;;;3.27;1.20;;;;;;;7.88;69.68;99605.31;1556315;92;25786;-73
2022/05/28 02:23:57;;;;;;;3.87;1.20;;;;;;;7.88;69.83;99604.53;1556251;92;25573;-73
2022/05/28 02:26:31;;;;;;;3.52;1.32;;;;;;;7.87;70.20;99601.05;1556271;92;27598;-74
2022/05/28 02:29:00;;;;;;;2.45;1.10;;;;;;;7.86;70.16;99595.41;1556192;92;25602;-73
2022/05/28 02:31:30;;;;;;;8.58;1.42;;;;;;;7.87;70.26;99591.63;1556319;92;31544;-73
2022/05/28 02:33:57;;;;;;;3.20;1.10;;;;;;;7.89;70.31;99585.94;1556037;92;25718;-72
2022/05/28 02:36:26;;;;;;;8.40;3.62;;;;;;;7.86;70.39;99585.42;1556174;92;25642;-73
2022/05/28 02:38:53;;;;;;;3.60;1.47;;;;;;;7.89;70.47;99589.98;1556113;92;27443;-73
2022/05/28 02:41:21;;;;;;;5.15;1.47;;;;;;;7.90;70.59;99586.16;1556034;92;25693;-73
2022/05/28 02:43:47;;;;;;;3.52;0.90;;;;;;;7.91;70.59;99581.82;1556117;92;25493;-74
2022/05/28 02:46:14;;;;;;;4.97;1.52;;;;;;;7.92;70.58;99582.64;1556058;92;25800;-74
2022/05/28 02:48:40;;;;;;;5.37;1.67;;;;;;;7.94;70.48;99584.46;1556120;92;25542;-73
2022/05/28 02:51:12;;;;;;;3.35;1.22;;;;;;;7.94;70.71;99590.63;1556087;92;27362;-73
2022/05/28 02:53:40;;;;;;;2.80;1.30;;;;;;;7.95;70.70;99588.20;1618429;85;25684;-73
2022/05/28 02:56:09;;;;;;;5.72;1.30;;;;;;;7.97;70.71;99591.94;1685128;84;25510;-73
2022/05/28 02:58:35;;;;;;;3.80;1.35;;;;;;;7.98;70.70;99585.42;1686409;84;25613;-73
2022/05/28 03:01:03;;;;;;;8.60;1.37;;;;;;;7.98;70.77;99586.77;1687048;84;25632;-74
2022/05/28 03:03:30;;;;;;;3.80;1.50;;;;;;;7.97;70.82;99588.68;1687077;84;27333;-74
2022/05/28 03:05:56;;;;;;;4.03;1.30;;;;;;;7.98;70.94;99576.78;1687206;85;25699;-75
2022/05/28 03:08:22;;;;;;;3.60;1.17;;;;;;;7.98;70.90;99571.96;1687253;84;29768;-74
2022/05/28 03:10:48;;;;;;;7.90;1.67;;;;;;;8.03;70.96;99572.61;1686571;85;25699;-74
2022/05/28 03:13:15;;;;;;;3.62;1.27;;;;;;;8.05;71.11;99580.39;1686634;85;25485;-74
2022/05/28 03:15:41;;;;;;;5.80;1.20;;;;;;;8.09;71.17;99593.50;1686600;84;27595;-75
2022/05/28 03:18:07;;;;;;;6.70;1.80;;;;;;;8.14;71.27;99583.94;1686381;84;25483;-75
2022/05/28 03:20:33;;;;;;;3.08;1.27;;;;;;;8.18;71.26;99578.72;1685587;84;25508;-75
2022/05/28 03:22:59;;;;;;;5.08;1.40;;;;;;;8.24;71.43;99585.57;1698534;84;34912;-74
2022/05/28 03:25:26;;;;;;;6.40;1.32;;;;;;;8.29;71.35;99581.39;1698564;84;25432;-74
2022/05/28 03:27:52;;;;;;;7.35;1.65;;;;;;;8.34;71.38;99579.91;1698571;84;27072;-73
2022/05/28 03:30:18;;;;;;;4.10;1.30;;;;;;;8.38;71.25;99585.47;1698470;84;25674;-74
2022/05/28 03:32:45;;;;;;;4.30;1.25;;;;;;;8.43;71.18;99575.92;1698538;84;25605;-74
2022/05/28 03:35:11;;;;;;;9.35;1.60;;;;;;;8.47;71.14;99582.83;1698489;84;25619;-74
2022/05/28 03:37:37;;;;;;;6.40;1.35;;;;;;;8.51;71.08;99581.09;1698562;84;25479;-74
2022/05/28 03:40:05;;;;;;;4.03;1.20;;;;;;;8.53;71.04;99578.34;1698507;84;27366;-74
2022/05/28 03:42:31;;;;;;;5.92;1.52;;;;;;;8.58;70.99;99581.42;1698458;84;25586;-74
2022/05/28 03:44:57;;;;;;;4.12;1.75;;;;;;;8.59;71.04;99585.16;1698535;84;29970;-74
2022/05/28 03:47:23;;;;;;;4.08;1.87;;;;;;;8.64;70.93;99579.40;1698506;84;25624;-74
2022/05/28 03:49:49;;;;;;;6.08;1.82;;;;;;;8.66;70.86;99571.78;1698568;84;25470;-74
2022/05/28 03:52:15;;;;;;;6.03;1.40;;;;;;;8.69;71.08;99570.60;1698519;84;27901;-74
2022/05/28 03:54:45;;;;;;;3.98;1.67;;;;;;;8.72;70.89;99564.59;1698498;84;33497;-74
2022/05/28 03:57:17;;;;;;;7.25;1.70;;;;;;;8.77;70.83;99574.44;1698516;84;25572;-73
2022/05/28 03:59:43;;;;;;;4.67;1.57;;;;;;;8.78;70.86;99570.08;1686217;84;25734;-72
2022/05/28 04:02:09;;;;;;;5.28;1.47;;;;;;;8.80;70.85;99567.05;1689612;85;25610;-73
2022/05/28 04:04:35;;;;;;;3.95;1.17;;;;;;;8.84;70.78;99571.28;1689563;85;27346;-74
2022/05/28 04:07:02;;;;;;;4.25;1.50;;;;;;;8.86;70.82;99570.41;1689487;85;25700;-74
2022/05/28 04:09:28;;;;;;;5.45;2.25;;;;;;;8.88;70.79;99570.88;1689477;84;25639;-74
2022/05/28 04:11:54;;;;;;;3.27;1.30;;;;;;;8.91;70.75;99575.09;1689614;84;25627;-74
2022/05/28 04:14:21;;;;;;;2.50;1.30;;;;;;;8.92;70.68;99570.48;1649877;87;32831;-74
2022/05/28 04:16:47;;;;;;;6.03;1.40;;;;;;;8.94;70.70;99566.37;1689692;84;27413;-75
2022/05/28 04:19:13;;;;;;;3.50;1.35;;;;;;;8.97;70.65;99569.80;1649797;87;33558;-74
2022/05/28 04:21:39;;;;;;;2.83;1.40;;;;;;;9.02;70.81;99569.39;1689697;84;25571;-72
2022/05/28 04:24:06;;;;;;;4.35;1.37;;;;;;;9.01;70.62;99574.00;1689657;84;26250;-73
2022/05/28 04:26:33;;;;;;;2.50;1.32;;;;;;;9.03;70.82;99577.16;1689620;84;25658;-73
2022/05/28 04:28:59;;;;;;;6.05;1.65;;;;;;;9.04;70.73;99576.07;1689664;84;27401;-73
2022/05/28 04:31:26;;;;;;;3.95;1.65;;;;;;;9.07;70.88;99570.58;1689567;84;25479;-73
2022/05/28 04:33:52;;;;;;;4.03;1.67;;;;;;;9.08;70.85;99568.13;1689684;84;25509;-73
2022/05/28 04:36:19;;;;;;;3.95;1.57;;;;;;;9.11;71.13;99571.55;1689629;84;25578;-73
2022/05/28 04:38:45;;;;;;;3.02;1.50;;;;;;;9.13;71.02;99571.46;1689648;84;25646;-74
2022/05/28 04:41:11;;;;;;;5.75;2.00;;;;;;;9.19;71.10;99569.39;1689641;84;28048;-74
2022/05/28 04:43:37;;;;;;;6.60;1.60;;;;;;;9.19;70.99;99573.44;1689623;84;25660;-74
2022/05/28 04:46:04;;;;;;;3.67;1.50;;;;;;;9.19;70.79;99571.30;1689630;84;25463;-74
2022/05/28 04:48:31;;;;;;;2.22;1.65;;;;;;;9.21;71.23;99578.52;1689652;84;26307;-75
2022/05/28 04:50:57;;;;;;;6.58;1.87;;;;;;;9.21;71.28;99579.34;1689705;84;25625;-75
2022/05/28 04:53:23;;;;;;;6.00;1.82;;;;;;;9.19;71.32;99576.14;1689609;84;27939;-74
2022/05/28 04:55:49;;;;;;;4.30;1.87;;;;;;;9.20;71.72;99576.95;1689584;84;25665;-73
2022/05/28 04:58:16;;;;;;;5.42;1.90;;;;;;;9.18;71.59;99574.57;1692755;84;25608;-74
2022/05/28 05:00:46;;;;;;;11.43;2.30;;;;;;;9.21;71.88;99573.94;1700627;84;26212;-74
2022/05/28 05:03:12;;;;;;;5.78;1.85;;;;;;;9.25;71.68;99572.75;1700828;84;25435;-74
2022/05/28 05:05:39;;;;;;;5.75;2.17;;;;;;;9.29;71.83;99573.69;1700703;84;27414;-75
2022/05/28 05:08:06;;;;;;;3.85;2.00;;;;;;;9.34;71.76;99577.02;1700605;84;25481;-75
2022/05/28 05:10:33;;;;;;;5.03;2.35;;;;;;;9.37;71.41;99582.91;1700666;84;25499;-74
2022/05/28 05:13:00;;;;;;;5.33;2.47;;;;;;;9.40;71.40;99583.06;1700623;84;26398;-73
2022/05/28 05:15:27;;;;;;;4.30;2.00;;;;;;;9.44;71.45;99583.22;1700719;84;25582;-73
2022/05/28 05:17:53;;;;;;;7.28;2.33;;;;;;;9.47;71.12;99577.97;1700599;84;27376;-74
2022/05/28 05:20:20;;;;;;;6.87;2.15;;;;;;;9.49;71.21;99589.80;1700549;84;25427;-74
2022/05/28 05:22:46;;;;;;;9.30;2.42;;;;;;;9.54;71.21;99585.03;1700577;84;25877;-75
2022/05/28 05:25:14;;;;;;;7.42;2.17;;;;;;;9.63;71.11;99578.83;1700605;84;25584;-75
2022/05/28 05:27:42;;;;;;;4.87;1.75;;;;;;;9.67;70.94;99586.52;1700626;84;25499;-75
2022/05/28 05:30:10;;;;;;;3.87;2.05;;;;;;;9.71;70.82;99580.16;1700624;84;27320;-75
2022/05/28 05:32:36;;;;;;;4.45;1.82;;;;;;;9.73;70.19;99579.84;1700544;84;25608;-75
2022/05/28 05:35:02;;;;;;;8.35;2.17;;;;;;;9.73;70.22;99581.20;1700635;84;25513;-75
2022/05/28 05:37:28;;;;;;;5.70;1.80;;;;;;;9.77;70.15;99591.59;1700557;84;25609;-75
2022/05/28 05:39:54;;;;;;;4.90;1.90;;;;;;;9.79;69.70;99585.86;1700655;84;25630;-76
2022/05/28 05:42:20;;;;;;;8.28;1.85;;;;;;;9.99;69.42;99596.56;1700574;84;27335;-74
2022/05/28 05:44:46;;;;;;;3.72;1.92;;;;;;;9.99;69.42;99596.56;1700488;84;25599;-74
2022/05/28 05:47:12;;;;;;;5.47;1.90;;;;;;;9.96;69.21;99585.03;1700582;84;29772;-74
2022/05/28 05:49:39;;;;;;;3.10;1.87;;;;;;;10.05;69.45;99581.77;1700580;84;25785;-74
2022/05/28 05:52:06;;;;;;;8.48;2.12;;;;;;;10.15;69.09;99585.47;1700613;84;25615;-74
2022/05/28 05:54:32;;;;;;;7.95;2.45;;;;;;;10.22;69.17;99570.11;1700575;84;28011;-74
2022/05/28 05:56:59;;;;;;;4.92;2.52;;;;;;;10.36;68.98;99570.70;1700530;84;25486;-76
2022/05/28 05:59:25;;;;;;;7.62;3.20;;;;;;;10.54;68.80;99579.55;1699278;83;25638;-74
2022/05/28 06:01:51;;;;;;;3.67;2.10;;;;;;;10.68;68.31;99579.31;1678648;84;25732;-76
2022/05/28 06:04:18;;;;;;;3.67;2.27;;;;;;;10.81;67.66;99570.17;1698640;84;25637;-74
2022/05/28 06:06:44;;;;;;;4.53;2.12;;;;;;;10.93;67.15;99574.05;1698543;84;27893;-74
2022/05/28 06:09:11;;;;;;;3.80;2.20;;;;;;;11.01;67.33;99584.03;1698503;84;25600;-74
2022/05/28 06:11:38;;;;;;;5.15;2.35;;;;;;;11.06;65.63;99577.64;1698616;84;25664;-75
2022/05/28 06:14:04;;;;;;;3.62;2.70;;;;;;;11.05;65.79;99586.33;1698551;84;26269;-74
2022/05/28 06:16:31;;;;;;;7.35;3.30;;;;;;;11.03;65.30;99581.78;1698665;84;25408;-74
2022/05/28 06:18:57;;;;;;;6.65;2.75;;;;;;;11.02;65.15;99575.59;1698554;84;27376;-74
2022/05/28 06:21:25;;;;;;;8.65;3.12;;;;;;;11.08;65.78;99576.17;1698515;84;25677;-75
2022/05/28 06:23:52;;;;;;;5.25;3.08;;;;;;;11.12;65.37;99579.83;1698596;84;25730;-75
2022/05/28 06:26:18;;;;;;;7.12;3.00;;;;;;;11.09;64.83;99584.54;1698556;84;25658;-74
2022/05/28 06:28:44;;;;;;;5.35;2.90;;;;;;;11.18;64.90;99581.20;1698577;84;25222;-74
2022/05/28 06:31:13;;;;;;;6.80;2.87;;;;;;;11.38;64.51;99575.55;1698623;84;27385;-74
2022/05/28 06:33:41;;;;;;;4.22;2.22;;;;;;;11.63;64.30;99559.95;1698693;84;25222;-75
2022/05/28 06:36:10;;;;;;;2.95;2.17;;;;;;;11.90;63.15;99557.20;1698577;84;25676;-75
2022/05/28 06:38:36;;;;;;;5.62;2.35;;;;;;;12.12;60.51;99553.33;1698686;84;25664;-75
2022/05/28 06:41:04;;;;;;;3.35;1.90;;;;;;;12.20;61.81;99558.43;1698624;84;25461;-74
2022/05/28 06:43:30;;;;;;;3.25;1.90;;;;;;;12.26;61.69;99571.97;1698606;84;27296;-74
2022/05/28 06:46:06;;;;;;;4.50;1.90;;;;;;;12.26;61.08;99558.42;1698478;83;25603;-74
2022/05/28 06:48:32;;;;;;;3.60;1.77;;;;;;;12.30;60.58;99563.41;1698634;84;25484;-74
2022/05/28 06:51:02;;;;;;;5.75;1.95;;;;;;;12.24;59.90;99566.92;1698559;84;25613;-75
2022/05/28 06:53:46;;;;;;;5.20;1.70;;;;;;;12.38;60.60;99552.21;1698741;84;25414;-75
2022/05/28 06:56:13;;;;;;;5.45;2.10;;;;;;;12.56;60.90;99559.00;1698598;84;27332;-74
2022/05/28 06:58:40;;;;;;;7.92;2.22;;;;;;;12.67;60.00;99553.92;1698702;83;25744;-74
2022/05/28 07:01:09;;;;;;;4.83;1.85;;;;;;;12.73;59.62;99552.53;1700565;84;25484;-75
2022/05/28 07:03:37;;;;;;;3.90;2.60;;;;;;;12.68;56.57;99567.15;1700661;83;32903;-75
2022/05/28 07:06:04;;;;;;;4.40;1.22;;;;;;;12.66;57.06;99559.11;1700559;84;25615;-74
2022/05/28 07:08:30;;;;;;;4.03;2.05;;;;;;;12.83;57.50;99553.42;1700533;84;27402;-74
2022/05/28 07:10:59;;;;;;;3.83;1.60;;;;;;;13.11;57.32;99555.42;1700414;84;25435;-73
2022/05/28 07:13:28;;;;;;;8.25;3.00;;;;;;;13.22;56.55;99560.58;1700527;84;25532;-74
2022/05/28 07:15:54;;;;;;;3.90;1.60;;;;;;;13.27;55.55;99554.90;1700660;84;26322;-75
2022/05/28 07:18:21;;;;;;;7.00;2.25;;;;;;;13.62;56.80;99552.99;1700554;84;25575;-74
2022/05/28 07:20:49;;;;;;;3.52;1.60;;;;;;;13.94;53.43;99551.66;1700544;84;27104;-75
2022/05/28 07:23:19;;;;;;;1.90;1.30;;;;;;;14.19;55.55;99550.94;1700478;84;25647;-74
2022/05/28 07:25:46;;;;;;;2.42;1.45;;;;;;;14.46;52.81;99531.37;1700564;84;25654;-74
2022/05/28 07:28:28;;;;;;;1.75;1.20;;;;;;;14.39;53.48;99549.67;1700649;84;25641;-74
2022/05/28 07:30:58;;;;;;;2.25;0.98;;;;;;;14.19;52.61;99565.11;1700637;84;25422;-73
2022/05/28 07:33:26;;;;;;;3.02;1.12;;;;;;;13.83;50.78;99540.52;1700628;84;28155;-73
2022/05/28 07:35:54;;;;;;;5.92;1.20;;;;;;;13.46;50.90;99552.15;1700698;84;25617;-73
2022/05/28 07:38:22;;;;;;;2.58;1.12;;;;;;;13.27;52.34;99554.13;1701926;84;25232;-75
2022/05/28 07:40:50;;;;;;;3.40;1.32;;;;;;;13.49;51.45;99551.46;1701737;84;26192;-73
2022/05/28 07:43:17;;;;;;;3.60;1.47;;;;;;;13.44;50.38;99550.35;1700540;84;25426;-75
2022/05/28 07:45:45;;;;;;;3.25;1.32;;;;;;;13.36;51.90;99547.21;1700762;83;27384;-75
2022/05/28 07:48:15;;;;;;;2.42;1.20;;;;;;;13.33;52.07;99548.70;1700604;84;25749;-76
2022/05/28 07:50:42;;;;;;;3.02;1.10;;;;;;;13.34;52.56;99558.42;1700890;84;25657;-75
2022/05/28 07:53:09;;;;;;;3.90;1.07;;;;;;;13.29;52.44;99553.78;1700741;84;25680;-75
2022/05/28 07:55:36;;;;;;;4.87;1.30;;;;;;;13.32;52.39;99559.34;1700777;84;25514;-76
2022/05/28 07:58:14;;;;;;;3.08;1.40;;;;;;;13.27;51.37;99562.27;1700745;84;27318;-75
2022/05/28 08:00:44;;;;;;;4.47;1.20;;;;;;;13.18;52.42;99562.98;1698298;84;25757;-75
2022/05/28 08:03:13;;;;;;;2.92;1.37;;;;;;;13.21;52.49;99570.42;1698196;84;25458;-75
2022/05/28 08:05:42;;;;;;;4.27;1.37;;;;;;;13.25;52.85;99561.83;1699000;84;25633;-75
2022/05/28 08:08:10;;;;;;;3.30;1.55;;;;;;;13.49;53.76;99566.98;1698738;84;25654;-76
2022/05/28 08:10:37;;;;;;;4.30;1.32;;;;;;;13.56;52.61;99563.88;1698740;84;27961;-74
2022/05/28 08:13:13;;;;;;;4.03;1.12;;;;;;;13.56;52.21;99566.59;1698606;83;25435;-74
2022/05/28 08:15:44;;;;;;;6.87;1.60;;;;;;;13.78;53.03;99561.75;1698708;84;25433;-74
2022/05/28 08:18:14;;;;;;;3.02;1.12;;;;;;;13.98;53.15;99549.84;1698705;84;25709;-74
2022/05/28 08:23:30;;;;;;;4.80;1.82;;;;;;;14.78;52.62;99554.45;1698083;84;25975;-73
2022/05/28 08:25:56;;;;;;;7.47;1.50;;;;;;;15.48;52.02;99542.69;1686591;84;25784;-75
2022/05/28 08:28:23;;;;;;;4.78;1.20;;;;;;;16.03;47.08;99558.30;1671304;85;25846;-72
2022/05/28 08:30:49;;;;;;;4.30;1.20;;;;;;;16.10;46.08;99522.77;1670595;85;26252;-72
2022/05/28 08:33:18;;;;;;;5.17;1.30;;;;;;;15.91;46.71;99544.08;1669720;84;26486;-72
2022/05/28 08:35:47;;;;;;;4.97;1.07;;;;;;;16.02;46.65;99535.48;1670278;85;27313;-70
2022/05/28 08:38:17;;;;;;;3.90;1.22;;;;;;;16.35;47.24;99542.27;1630720;87;25715;-73
2022/05/28 08:41:10;;;;;;;4.37;1.20;;;;;;;16.60;45.05;99543.44;1619544;87;25657;-75
2022/05/28 08:43:42;;;;;;;3.67;1.25;;;;;;;16.73;45.50;99532.29;1619725;88;25808;-66
2022/05/28 08:46:13;;;;;;;4.42;1.50;;;;;;;16.65;45.12;99538.21;1619685;88;25783;-71
2022/05/28 08:48:47;;;;;;;3.55;1.22;;;;;;;16.55;43.43;99545.11;1619779;88;27451;-76
2022/05/28 08:51:25;;;;;;;4.75;1.70;;;;;;;16.66;43.96;99536.29;1619618;88;25813;-73
2022/05/28 08:53:59;;;;;;;2.72;1.10;;;;;;;16.83;44.49;99542.57;1619009;88;25731;-75
2022/05/28 08:56:27;;;;;;;4.12;1.00;;;;;;;16.82;44.33;99525.97;1610494;88;25957;-77
2022/05/28 08:59:06;;;;;;;4.97;1.17;;;;;;;16.86;44.57;99534.27;1619664;88;25726;-74
2022/05/28 09:01:37;;;;;;;4.80;0.80;;;;;;;16.60;44.59;99538.53;1621331;88;27398;-66
2022/05/28 09:04:20;;;;;;;6.87;1.27;;;;;;;16.34;44.22;99552.37;1609227;89;26377;-66
2022/05/28 09:06:56;;;;;;;2.75;1.55;;;;;;;16.12;43.72;99541.69;1609331;89;25654;-66
2022/05/28 09:09:44;;;;;;;4.10;1.10;;;;;;;15.96;43.74;99552.73;1608376;89;26615;-72
2022/05/28 09:12:21;;;;;;;3.08;1.07;;;;;;;16.19;44.86;99534.20;1609366;89;25740;-70
2022/05/28 09:14:47;;;;;;;5.78;1.25;;;;;;;16.46;45.18;99531.51;1608954;89;27439;-68
2022/05/28 09:17:36;;;;;;;7.97;1.77;;;;;;;16.66;44.30;99545.84;1632510;87;25732;-68
2022/05/28 09:20:10;;;;;;;4.28;1.10;;;;;;;16.77;44.80;99538.58;1632575;87;25631;-72
2022/05/28 09:22:40;;;;;;;3.00;1.00;;;;;;;17.02;42.97;99529.38;1620191;88;27763;-70
2022/05/28 09:25:08;;;;;;;3.17;1.05;;;;;;;17.29;43.25;99533.42;1609474;89;25653;-70
2022/05/28 09:27:55;;;;;;;2.85;1.05;;;;;;;17.34;41.51;99543.44;1609548;89;28098;-69
2022/05/28 09:30:38;;;;;;;11.03;1.55;;;;;;;17.44;40.74;99537.89;1609447;89;25812;-70
2022/05/28 09:33:28;;;;;;;3.00;1.17;;;;;;;17.17;41.52;99545.38;1608909;89;25812;-69
2022/05/28 09:36:21;;;;;;;3.90;1.00;;;;;;;16.84;41.06;99548.81;1632602;87;25799;-66
2022/05/28 09:39:04;;;;;;;4.47;1.30;;;;;;;16.50;41.28;99550.08;1687442;84;25818;-72
2022/05/28 09:41:48;;;;;;;2.37;1.00;;;;;;;16.49;42.13;99538.38;1687012;85;27952;-71
2022/05/28 09:44:31;;;;;;;3.75;1.12;;;;;;;16.28;41.83;99532.03;1666137;84;25721;-70
2022/05/28 09:47:16;;;;;;;5.78;1.12;;;;;;;16.36;42.73;99543.83;1648696;87;25819;-71
2022/05/28 09:49:54;;;;;;;4.25;1.47;;;;;;;16.74;43.75;99518.27;1648758;87;25805;-68
2022/05/28 09:52:26;;;;;;;3.55;1.10;;;;;;;17.07;41.41;99533.75;1666696;86;25769;-69
2022/05/28 09:54:53;;;;;;;3.20;0.90;;;;;;;16.84;40.17;99512.78;1666404;86;27302;-68
2022/05/28 09:57:27;;;;;;;4.70;0.90;;;;;;;16.66;40.24;99527.52;1666419;86;25779;-70
2022/05/28 10:00:03;;;;;;;3.02;0.82;;;;;;;16.62;40.96;99511.08;1666583;86;25698;-72
2022/05/28 10:04:28;;;;;;;4.22;1.10;;;;;;;16.73;42.88;99515.31;1644558;86;25713;-76
2022/05/28 10:05:16;;;;;;;3.17;1.10;;;;;;;17.10;43.49;99509.20;1662868;86;26256;-69
2022/05/28 10:07:48;;;;;;;3.92;0.78;;;;;;;17.33;42.29;99503.62;1666424;86;27519;-70
2022/05/28 10:10:30;;;;;;;2.72;1.00;;;;;;;17.19;41.89;99502.08;1666312;86;25711;-72
2022/05/28 10:13:14;;;;;;;2.58;1.07;;;;;;;17.08;41.99;99506.05;1666555;86;25741;-68
2022/05/28 10:15:51;;;;;;;4.83;1.20;;;;;;;16.92;41.44;99517.74;1678707;84;26394;-66
2022/05/28 10:18:23;;;;;;;0.88;0.80;;;;;;;16.73;41.87;99518.05;1695939;84;25855;-68
2022/05/28 10:21:03;;;;;;;3.95;1.00;;;;;;;17.18;43.18;99516.91;1678606;83;28236;-67
2022/05/28 10:23:29;;;;;;;6.70;1.52;;;;;;;17.39;41.48;99507.38;1777988;80;25752;-69
2022/05/28 10:25:57;;;;;;;2.75;0.80;;;;;;;17.12;40.46;99536.92;1777758;80;25708;-69
2022/05/28 10:28:31;;;;;;;2.58;0.60;;;;;;;16.35;41.37;99580.48;1777776;80;26073;-71
2022/05/28 10:30:58;;;;;;;4.30;1.32;;;;;;;15.40;42.69;99545.05;1777832;80;25726;-70
2022/05/28 10:33:29;;;;;;;1.12;0.57;;;;;;;14.65;43.84;99578.28;1777659;80;27964;-71
2022/05/28 10:36:12;;;;;;;1.00;0.60;;;;;;;14.01;45.36;99573.62;1774750;80;25822;-68
2022/05/28 10:38:40;;;;;;;1.27;0.55;;;;;;;13.50;46.88;99583.48;1777845;80;25796;-71
2022/05/28 10:41:29;;;;;;;2.33;1.10;;;;;;;13.25;48.12;99584.91;1777931;80;25676;-69
2022/05/28 10:43:55;;;;;;;2.05;0.65;;;;;;;13.13;48.49;99570.80;1781355;80;25674;-69
2022/05/28 10:46:33;;;;;;;3.20;1.00;;;;;;;13.11;48.85;99587.19;1783261;79;27929;-68
2022/05/28 10:49:33;;;;;;;1.35;0.80;;;;;;;13.17;49.67;99567.61;1779496;80;25630;-70
2022/05/28 10:52:26;;;;;;;2.58;0.88;;;;;;;13.42;49.86;99584.66;1747086;81;25653;-69
2022/05/28 10:55:16;;;;;;;4.15;1.00;;;;;;;13.72;50.10;99578.06;1746976;82;26176;-69
2022/05/28 10:58:25;;;;;;;2.47;1.17;;;;;;;14.19;50.80;99574.63;1778353;80;25731;-69
2022/05/28 11:01:12;;;;;;;2.37;0.98;;;;;;;14.60;49.98;99574.47;1788514;80;27370;-71
2022/05/28 11:03:44;;;;;;;1.75;1.00;;;;;;;14.92;49.31;99574.62;1788015;79;25710;-70
2022/05/28 11:06:41;;;;;;;6.75;2.00;;;;;;;14.89;48.45;99571.82;1788473;79;25587;-71
2022/05/28 11:09:39;;;;;;;2.12;1.05;;;;;;;14.75;48.55;99583.18;1788313;79;26395;-70
2022/05/28 11:12:26;;;;;;;2.05;1.22;;;;;;;14.34;48.82;99576.56;1788419;80;25700;-68
2022/05/28 11:15:32;;;;;;;3.12;1.47;;;;;;;13.98;49.41;99576.25;1788616;79;27302;-70
2022/05/28 11:18:18;;;;;;;4.25;1.30;;;;;;;13.69;50.03;99584.19;1788402;79;25700;-69
2022/05/28 11:21:11;;;;;;;3.35;1.12;;;;;;;13.31;51.05;99590.88;1788439;79;25672;-69
2022/05/28 11:24:00;;;;;;;4.20;1.20;;;;;;;13.02;51.75;99582.68;1788201;79;26277;-69
2022/05/28 11:26:52;;;;;;;5.45;1.37;;;;;;;12.96;52.65;99587.36;1788674;80;25700;-68
2022/05/28 11:29:42;;;;;;;3.20;1.17;;;;;;;12.86;52.29;99590.74;1788553;80;27394;-68
2022/05/28 11:32:23;;;;;;;3.40;0.75;;;;;;;12.65;52.59;99618.02;1788262;79;25535;-69
2022/05/28 11:34:54;;;;;;;2.62;0.90;;;;;;;12.51;51.94;99606.69;1788407;80;25441;-68
2022/05/28 11:37:35;;;;;;;1.82;0.80;;;;;;;12.41;51.58;99613.92;1783093;80;25721;-69
2022/05/28 11:40:16;;;;;;;1.67;0.68;;;;;;;12.41;51.96;99609.84;1765623;80;25732;-69
2022/05/28 11:42:56;;;;;;;0.70;0.50;;;;;;;12.62;52.16;99612.48;1764572;81;28191;-70
2022/05/28 11:45:55;;;;;;;1.80;0.80;;;;;;;13.10;52.43;99589.13;1765380;80;25797;-71
2022/05/28 11:51:50;;;;;;;0.50;0.50;;;;;;;14.54;50.31;99566.55;1765548;81;25754;-69
2022/05/28 11:54:28;;;;;;;1.67;0.53;;;;;;;15.27;49.67;99570.27;1764848;80;26189;-70
2022/05/28 11:56:58;;;;;;;1.70;0.82;;;;;;;15.61;47.70;99556.38;1765819;81;27323;-69
2022/05/28 11:59:27;;;;;;;3.12;0.93;;;;;;;15.65;47.37;99575.52;1765529;80;26132;-69
2022/05/28 12:01:59;;;;;;;4.10;0.95;;;;;;;15.52;46.51;99561.25;1765612;80;25755;-70
2022/05/28 12:04:25;;;;;;;1.95;0.78;;;;;;;15.23;46.38;99566.12;1765277;80;25777;-69